Time;durP1;ratioP1;P1;durP2;ratioP2;P2;SDS_P1;SDS_P2;PMS_P1;PMS_P2;Temp;Humidity;BMP_temperature;BMP_pressure;BME280_temperature;BME280_humidity;BME280_pressure;Samples;Min_cycle;Max_cycle;Signal;HPM_P1;HPM_P2
2023/07/29 00:00:46;;;;;;;3.73;3.50;;;18.00;99.90;;;;;;5045924;28;20217;-55
2023/07/29 00:03:13;;;;;;;3.50;3.30;;;18.00;99.90;;;;;;5046650;28;20725;-55
2023/07/29 00:05:40;;;;;;;3.93;3.57;;;18.00;99.90;;;;;;5053909;28;20206;-55
2023/07/29 00:08:07;;;;;;;4.53;3.27;;;18.00;99.90;;;;;;5047021;28;20263;-55
2023/07/29 00:10:38;;;;;;;4.10;3.73;;;18.00;99.90;;;;;;5037532;28;20257;-55
2023/07/29 00:13:05;;;;;;;3.90;3.60;;;18.00;99.90;;;;;;5042027;28;20539;-55
2023/07/29 00:15:32;;;;;;;3.70;3.50;;;18.10;99.90;;;;;;5034014;28;20753;-55
2023/07/29 00:17:59;;;;;;;4.70;4.00;;;18.00;99.90;;;;;;5033998;28;20309;-55
2023/07/29 00:20:26;;;;;;;3.40;3.20;;;18.00;99.90;;;;;;5038972;28;20707;-54
2023/07/29 00:22:54;;;;;;;2.90;2.70;;;18.00;99.90;;;;;;5032785;28;20680;-55
2023/07/29 00:25:21;;;;;;;2.83;2.63;;;18.00;99.90;;;;;;5053985;28;20209;-55
2023/07/29 00:27:52;;;;;;;5.43;4.03;;;18.00;99.90;;;;;;5053786;28;20222;-55
2023/07/29 00:30:19;;;;;;;3.50;3.20;;;18.00;99.90;;;;;;5049481;28;20202;-55
2023/07/29 00:32:50;;;;;;;2.70;2.60;;;18.00;99.90;;;;;;5045078;28;20730;-55
2023/07/29 00:35:17;;;;;;;3.17;2.80;;;18.00;99.90;;;;;;5047107;28;20205;-55
2023/07/29 00:37:44;;;;;;;2.70;2.60;;;18.00;99.90;;;;;;5045329;28;20217;-55
2023/07/29 00:40:16;;;;;;;3.40;2.93;;;18.00;99.90;;;;;;5049161;28;20202;-55
2023/07/29 00:42:43;;;;;;;2.30;2.20;;;18.00;99.90;;;;;;5044952;28;20284;-56
2023/07/29 00:45:12;;;;;;;2.87;2.67;;;18.00;99.90;;;;;;5053394;28;20198;-55
2023/07/29 00:47:39;;;;;;;2.97;2.77;;;18.00;99.90;;;;;;5051640;28;20793;-55
2023/07/29 00:50:10;;;;;;;3.23;3.03;;;17.90;99.90;;;;;;5040700;28;20198;-55
2023/07/29 00:52:37;;;;;;;3.07;2.77;;;17.90;99.90;;;;;;5041375;28;20194;-55
2023/07/29 00:55:05;;;;;;;3.30;3.00;;;17.90;99.90;;;;;;5031990;28;20249;-55
2023/07/29 00:57:32;;;;;;;3.30;2.77;;;17.90;99.90;;;;;;5039189;28;20226;-56
2023/07/29 00:59:59;;;;;;;2.87;2.77;;;17.90;99.90;;;;;;5040895;28;20202;-55
2023/07/29 01:02:29;;;;;;;2.63;2.43;;;17.90;99.90;;;;;;5037128;28;20222;-55
2023/07/29 01:04:58;;;;;;;2.97;2.77;;;17.80;99.90;;;;;;5040639;28;20205;-55
2023/07/29 01:07:34;;;;;;;2.37;2.27;;;17.80;99.90;;;;;;5052853;28;20279;-55
2023/07/29 01:10:05;;;;;;;3.47;3.17;;;17.80;99.90;;;;;;5047093;28;20217;-55
2023/07/29 01:12:38;;;;;;;2.40;2.30;;;17.80;99.90;;;;;;5040919;28;20746;-55
2023/07/29 01:15:11;;;;;;;2.20;2.10;;;17.80;99.90;;;;;;5047939;28;20203;-55
2023/07/29 01:17:50;;;;;;;3.70;2.77;;;17.80;99.90;;;;;;5020957;28;20708;-55
2023/07/29 01:20:20;;;;;;;2.97;2.77;;;17.70;99.90;;;;;;5036679;28;20202;-55
2023/07/29 01:22:50;;;;;;;2.40;2.30;;;17.70;99.90;;;;;;5044143;28;20189;-55
2023/07/29 01:25:19;;;;;;;2.30;2.20;;;17.70;99.90;;;;;;5049438;28;20225;-55
2023/07/29 01:27:51;;;;;;;4.63;3.03;;;17.70;99.90;;;;;;5044461;28;20217;-55
2023/07/29 01:30:18;;;;;;;2.53;2.13;;;17.70;99.90;;;;;;5047701;28;20198;-55
2023/07/29 01:32:55;;;;;;;2.07;1.97;;;17.70;99.90;;;;;;5043821;28;20198;-55
2023/07/29 01:35:26;;;;;;;2.67;2.07;;;17.70;99.90;;;;;;5052379;28;20567;-55
2023/07/29 01:37:56;;;;;;;2.87;2.13;;;17.70;99.90;;;;;;5052432;28;20225;-55
2023/07/29 01:40:28;;;;;;;5.20;2.50;;;17.70;99.90;;;;;;5035647;28;20234;-56
2023/07/29 01:42:56;;;;;;;2.60;2.40;;;17.70;99.90;;;;;;5042154;28;20282;-55
2023/07/29 01:45:25;;;;;;;4.30;2.77;;;17.70;99.90;;;;;;5052412;28;20201;-55
2023/07/29 01:47:52;;;;;;;2.67;2.00;;;17.60;99.90;;;;;;5052149;28;20229;-55
2023/07/29 01:50:19;;;;;;;2.30;2.20;;;17.60;99.90;;;;;;5049645;28;20248;-55
2023/07/29 01:52:46;;;;;;;2.17;2.03;;;17.50;99.90;;;;;;5034490;28;20272;-56
2023/07/29 01:55:13;;;;;;;2.47;2.37;;;17.50;99.90;;;;;;5045128;28;20202;-55
2023/07/29 01:57:42;;;;;;;2.60;2.40;;;17.50;99.90;;;;;;5048080;28;20264;-56
2023/07/29 02:00:10;;;;;;;3.57;3.27;;;17.50;99.90;;;;;;5045534;28;20230;-55
2023/07/29 02:02:37;;;;;;;2.80;2.70;;;17.40;99.90;;;;;;5039816;28;20214;-55
2023/07/29 02:05:04;;;;;;;3.00;2.90;;;17.40;99.90;;;;;;5031957;28;20206;-55
2023/07/29 02:07:31;;;;;;;3.53;3.23;;;17.50;99.90;;;;;;5039190;28;20704;-55
2023/07/29 02:09:58;;;;;;;4.23;2.60;;;17.50;99.90;;;;;;5046702;28;20202;-55
2023/07/29 02:12:25;;;;;;;2.87;2.77;;;17.60;99.90;;;;;;5043166;28;20200;-55
2023/07/29 02:14:53;;;;;;;2.73;2.63;;;17.50;99.90;;;;;;5043347;28;20197;-55
2023/07/29 02:17:20;;;;;;;3.37;3.07;;;17.50;99.90;;;;;;5051235;28;20217;-56
2023/07/29 02:19:47;;;;;;;3.33;3.13;;;17.50;99.90;;;;;;5047557;28;20202;-55
2023/07/29 02:22:16;;;;;;;4.10;3.40;;;17.50;99.90;;;;;;5035633;28;20756;-56
2023/07/29 02:24:43;;;;;;;4.33;3.93;;;17.60;99.90;;;;;;5051690;28;20205;-55
2023/07/29 02:27:10;;;;;;;3.77;3.57;;;17.60;99.90;;;;;;5051610;28;20230;-55
2023/07/29 02:29:37;;;;;;;3.73;3.53;;;17.60;99.90;;;;;;5050964;28;20287;-55
2023/07/29 02:32:06;;;;;;;3.27;2.93;;;17.70;99.90;;;;;;5042418;28;20317;-55
2023/07/29 02:34:33;;;;;;;3.83;3.53;;;17.80;99.90;;;;;;5035247;28;20217;-56
2023/07/29 02:37:00;;;;;;;4.30;4.07;;;17.70;99.90;;;;;;5046971;28;20780;-54
2023/07/29 02:39:27;;;;;;;4.03;3.83;;;17.70;99.90;;;;;;5039793;28;20194;-55
2023/07/29 02:41:55;;;;;;;5.53;3.57;;;17.70;99.90;;;;;;5039956;28;20646;-55
2023/07/29 02:44:22;;;;;;;3.80;3.60;;;17.70;99.90;;;;;;5051446;28;20626;-55
2023/07/29 02:46:49;;;;;;;3.70;3.50;;;17.70;99.90;;;;;;5034448;28;20277;-55
2023/07/29 02:49:17;;;;;;;4.10;3.80;;;17.80;99.90;;;;;;5043177;28;20244;-55
2023/07/29 02:51:44;;;;;;;3.03;2.83;;;17.80;99.90;;;;;;5033433;28;20202;-55
2023/07/29 02:54:11;;;;;;;3.37;3.10;;;17.80;99.90;;;;;;5031236;28;20256;-55
2023/07/29 02:56:38;;;;;;;2.47;2.37;;;17.80;99.90;;;;;;5031279;28;20222;-55
2023/07/29 02:59:04;;;;;;;2.63;2.50;;;17.90;99.90;;;;;;5031463;28;20211;-55
2023/07/29 03:01:32;;;;;;;4.33;2.53;;;17.90;99.90;;;;;;5026975;28;20218;-55
2023/07/29 03:03:59;;;;;;;2.53;2.43;;;17.80;99.90;;;;;;5028922;28;20199;-54
2023/07/29 03:06:27;;;;;;;3.43;3.13;;;17.90;99.90;;;;;;5024672;28;20283;-55
2023/07/29 03:08:54;;;;;;;2.53;2.43;;;17.80;99.90;;;;;;5028569;28;20276;-56
2023/07/29 03:11:21;;;;;;;3.67;2.37;;;17.80;99.90;;;;;;5042060;28;20252;-55
2023/07/29 03:13:48;;;;;;;2.33;2.13;;;17.80;99.90;;;;;;5048389;28;20571;-55
2023/07/29 03:16:16;;;;;;;4.00;2.97;;;17.70;99.90;;;;;;5051249;28;20222;-55
2023/07/29 03:18:44;;;;;;;3.60;2.43;;;17.70;99.90;;;;;;5028913;28;20656;-55
2023/07/29 03:21:12;;;;;;;2.73;2.50;;;17.60;99.90;;;;;;5031519;28;20199;-55
2023/07/29 03:23:40;;;;;;;3.33;3.13;;;17.60;99.90;;;;;;5025399;28;20619;-55
2023/07/29 03:26:10;;;;;;;2.50;2.40;;;17.60;99.90;;;;;;5021142;28;20218;-57
2023/07/29 03:28:38;;;;;;;2.50;2.30;;;17.70;99.90;;;;;;5039111;28;20208;-55
2023/07/29 03:31:05;;;;;;;3.43;2.67;;;17.60;99.90;;;;;;5035011;28;20206;-55
2023/07/29 03:33:32;;;;;;;3.13;2.83;;;17.60;99.90;;;;;;5034594;28;20828;-54
2023/07/29 03:35:59;;;;;;;3.07;2.40;;;17.60;99.90;;;;;;5040739;28;20247;-55
2023/07/29 03:38:27;;;;;;;2.87;2.67;;;17.60;99.90;;;;;;5040614;28;20220;-55
2023/07/29 03:40:55;;;;;;;2.47;2.27;;;17.60;99.90;;;;;;5036335;28;20228;-55
2023/07/29 03:43:22;;;;;;;2.70;2.50;;;17.50;99.90;;;;;;5034294;28;20709;-55
2023/07/29 03:45:49;;;;;;;2.67;2.57;;;17.50;99.90;;;;;;5036291;28;20619;-55
2023/07/29 03:48:16;;;;;;;2.90;2.63;;;17.50;99.90;;;;;;5041514;28;20198;-54
2023/07/29 03:50:43;;;;;;;3.57;3.27;;;17.50;99.90;;;;;;5038214;28;20226;-55
2023/07/29 03:53:10;;;;;;;4.00;3.30;;;17.50;99.90;;;;;;5046420;28;20256;-55
2023/07/29 03:55:37;;;;;;;2.50;2.30;;;17.60;99.90;;;;;;5052084;28;20690;-55
2023/07/29 03:58:06;;;;;;;2.33;2.13;;;17.50;99.90;;;;;;5041729;28;20248;-55
2023/07/29 04:00:33;;;;;;;2.53;2.33;;;17.60;99.90;;;;;;5045930;28;20217;-55
2023/07/29 04:03:00;;;;;;;2.50;2.30;;;17.60;99.90;;;;;;5052756;28;20316;-56
2023/07/29 04:05:27;;;;;;;2.97;2.87;;;17.60;99.90;;;;;;5029130;28;20260;-54
2023/07/29 04:07:55;;;;;;;2.00;1.90;;;17.70;99.90;;;;;;5033998;28;20824;-55
2023/07/29 04:10:22;;;;;;;2.33;2.23;;;17.60;99.90;;;;;;5034342;28;20202;-55
2023/07/29 04:12:49;;;;;;;2.43;2.20;;;17.70;99.90;;;;;;5033789;28;20199;-55
2023/07/29 04:15:17;;;;;;;2.53;2.40;;;17.80;99.90;;;;;;5041083;28;20723;-56
2023/07/29 04:17:44;;;;;;;2.83;2.73;;;17.80;99.90;;;;;;5047512;28;20249;-56
2023/07/29 04:20:12;;;;;;;2.60;2.50;;;17.80;99.90;;;;;;5028487;28;20197;-54
2023/07/29 04:22:39;;;;;;;3.90;3.63;;;17.80;99.90;;;;;;5037334;28;20568;-55
2023/07/29 04:25:07;;;;;;;3.57;3.33;;;17.80;99.90;;;;;;5036453;28;20197;-55
2023/07/29 04:27:34;;;;;;;3.03;2.60;;;17.80;99.90;;;;;;5037388;28;20214;-54
2023/07/29 04:30:01;;;;;;;2.70;2.60;;;17.70;99.90;;;;;;5044496;28;20194;-55
2023/07/29 04:32:29;;;;;;;2.80;2.60;;;17.70;99.90;;;;;;5040995;28;20198;-55
2023/07/29 04:34:56;;;;;;;3.17;2.90;;;17.60;99.90;;;;;;5046589;28;20201;-54
2023/07/29 04:37:23;;;;;;;3.03;2.93;;;17.70;99.90;;;;;;5042927;28;20707;-55
2023/07/29 04:39:50;;;;;;;3.23;2.90;;;17.60;99.90;;;;;;5044530;28;20660;-54
2023/07/29 04:42:17;;;;;;;4.00;3.33;;;17.60;99.90;;;;;;5053116;28;20271;-56
2023/07/29 04:44:44;;;;;;;4.37;4.10;;;17.60;99.90;;;;;;5048585;28;20201;-55
2023/07/29 04:47:11;;;;;;;3.37;3.07;;;17.60;99.90;;;;;;5046411;22;20289;-49
2023/07/29 04:49:39;;;;;;;3.97;3.63;;;17.50;99.90;;;;;;5004910;28;20274;-49
2023/07/29 04:52:09;;;;;;;3.97;3.67;;;17.60;99.90;;;;;;5007910;28;20199;-48
2023/07/29 04:54:36;;;;;;;4.17;3.87;;;17.60;99.90;;;;;;5012936;28;20693;-49
2023/07/29 04:57:04;;;;;;;3.40;3.20;;;17.50;99.90;;;;;;4991986;28;20306;-49
2023/07/29 04:59:30;;;;;;;2.63;2.50;;;17.50;99.90;;;;;;4993291;28;20681;-49
2023/07/29 05:01:58;;;;;;;3.73;3.43;;;17.50;99.90;;;;;;4993038;28;20274;-49
2023/07/29 05:04:25;;;;;;;4.33;3.93;;;17.50;99.90;;;;;;4991867;28;20203;-49
2023/07/29 05:06:53;;;;;;;3.47;3.27;;;17.50;99.90;;;;;;4993072;28;20278;-49
2023/07/29 05:09:20;;;;;;;2.60;2.37;;;17.50;99.90;;;;;;4977727;28;20208;-49
2023/07/29 05:11:48;;;;;;;7.40;4.27;;;17.60;99.90;;;;;;4973661;28;20591;-49
2023/07/29 05:14:19;;;;;;;4.00;3.70;;;17.60;99.90;;;;;;4975747;28;20208;-49
2023/07/29 05:16:46;;;;;;;4.03;3.67;;;17.60;99.90;;;;;;4992976;28;20689;-49
2023/07/29 05:19:13;;;;;;;3.90;3.67;;;17.60;99.90;;;;;;4992179;28;20200;-49
2023/07/29 05:21:40;;;;;;;3.80;3.43;;;17.70;99.90;;;;;;5000868;28;20246;-49
2023/07/29 05:24:08;;;;;;;3.80;3.60;;;17.70;99.90;;;;;;5012205;28;20207;-49
2023/07/29 05:26:35;;;;;;;5.73;3.97;;;17.70;99.90;;;;;;4994995;28;20304;-49
2023/07/29 05:29:03;;;;;;;4.63;3.97;;;17.70;99.90;;;;;;4992083;28;20235;-49
2023/07/29 05:31:30;;;;;;;3.67;3.47;;;17.70;99.90;;;;;;4989816;28;20288;-49
2023/07/29 05:33:57;;;;;;;4.17;3.00;;;17.80;99.90;;;;;;4992459;28;20195;-49
2023/07/29 05:36:24;;;;;;;3.33;3.13;;;18.00;99.90;;;;;;4992780;28;20728;-49
2023/07/29 05:38:53;;;;;;;3.07;2.77;;;18.30;99.90;;;;;;4992658;28;20632;-49
2023/07/29 05:41:21;;;;;;;6.10;3.50;;;18.40;99.90;;;;;;4992773;28;20262;-49
2023/07/29 05:43:48;;;;;;;3.20;3.03;;;18.70;99.90;;;;;;4992192;28;20618;-49
2023/07/29 05:46:15;;;;;;;2.90;2.70;;;18.80;99.90;;;;;;4991819;28;20666;-49
2023/07/29 05:48:42;;;;;;;3.33;3.13;;;18.80;99.90;;;;;;4992169;28;20212;-49
2023/07/29 05:51:09;;;;;;;2.90;2.70;;;18.70;99.90;;;;;;4990917;28;20204;-49
2023/07/29 05:53:36;;;;;;;3.03;2.93;;;18.70;99.90;;;;;;4990855;28;20258;-49
2023/07/29 05:56:03;;;;;;;4.80;4.40;;;18.70;99.90;;;;;;4992332;28;20207;-49
2023/07/29 05:58:31;;;;;;;4.23;3.83;;;18.80;99.90;;;;;;4992393;28;20277;-49
2023/07/29 06:00:59;;;;;;;3.50;3.20;;;19.00;99.90;;;;;;4990586;28;20459;-54
2023/07/29 06:03:26;;;;;;;3.77;3.43;;;19.90;99.90;;;;;;4991578;28;20705;-54
2023/07/29 06:05:53;;;;;;;2.90;2.77;;;20.80;99.90;;;;;;5004082;28;20262;-50
2023/07/29 06:08:20;;;;;;;5.23;3.73;;;21.80;99.90;;;;;;4991889;28;20290;-50
2023/07/29 06:10:47;;;;;;;2.67;2.57;;;22.60;99.90;;;;;;4992148;28;20211;-56
2023/07/29 06:13:13;;;;;;;4.53;3.20;;;23.20;99.90;;;;;;4991899;28;20207;-57
2023/07/29 06:15:42;;;;;;;3.17;2.97;;;23.00;99.90;;;;;;4990845;28;20204;-57
2023/07/29 06:18:09;;;;;;;3.20;3.00;;;22.60;99.90;;;;;;4983986;28;20230;-58
2023/07/29 06:20:36;;;;;;;2.53;2.43;;;22.00;99.90;;;;;;4991846;28;20204;-58
2023/07/29 06:23:03;;;;;;;2.73;2.53;;;21.50;99.90;;;;;;4991338;28;20228;-54
2023/07/29 06:25:30;;;;;;;1.93;1.83;;;21.20;99.90;;;;;;4991856;28;20737;-53
2023/07/29 06:27:58;;;;;;;3.33;3.03;;;20.80;99.90;;;;;;4991065;28;20270;-54
2023/07/29 06:30:25;;;;;;;2.30;2.20;;;20.50;99.90;;;;;;4991694;28;20206;-54
2023/07/29 06:32:54;;;;;;;2.40;2.30;;;20.20;99.90;;;;;;4991614;28;20250;-52
2023/07/29 06:35:21;;;;;;;3.43;3.23;;;20.00;99.90;;;;;;4991628;28;20220;-53
2023/07/29 06:37:48;;;;;;;3.57;3.30;;;19.80;99.90;;;;;;4991320;28;20219;-53
2023/07/29 06:40:15;;;;;;;2.97;2.77;;;19.60;99.90;;;;;;4999235;28;20207;-53
2023/07/29 06:42:42;;;;;;;4.47;3.03;;;19.50;99.90;;;;;;5008671;28;20215;-53
2023/07/29 06:45:10;;;;;;;3.60;3.40;;;19.50;99.90;;;;;;4988997;28;20196;-56
2023/07/29 06:47:37;;;;;;;3.53;3.23;;;19.30;99.90;;;;;;4974877;28;20618;-56
2023/07/29 06:50:06;;;;;;;3.13;2.90;;;19.30;99.90;;;;;;4991655;28;20282;-57
2023/07/29 06:52:33;;;;;;;2.77;2.67;;;19.30;99.90;;;;;;4982195;28;20200;-58
2023/07/29 06:55:00;;;;;;;3.10;2.93;;;19.20;99.90;;;;;;4972419;28;20299;-56
2023/07/29 06:57:27;;;;;;;3.10;2.90;;;19.10;99.90;;;;;;4982837;28;20329;-59
2023/07/29 06:59:54;;;;;;;3.30;3.10;;;19.10;99.90;;;;;;4991634;28;20200;-59
2023/07/29 07:02:22;;;;;;;3.10;2.73;;;19.00;99.90;;;;;;4991787;28;20332;-59
2023/07/29 07:04:49;;;;;;;3.10;2.57;;;19.00;99.90;;;;;;4995478;28;20257;-58
2023/07/29 07:07:17;;;;;;;3.13;3.03;;;19.00;99.90;;;;;;4993549;28;20224;-58
2023/07/29 07:09:44;;;;;;;3.87;3.57;;;19.00;99.90;;;;;;4995445;28;20585;-58
2023/07/29 07:12:11;;;;;;;3.87;3.00;;;19.00;99.90;;;;;;4992993;28;20207;-58
2023/07/29 07:14:40;;;;;;;2.67;2.47;;;19.20;99.90;;;;;;4995003;28;20203;-59
2023/07/29 07:17:07;;;;;;;3.57;3.47;;;19.40;99.90;;;;;;4994886;28;20227;-56
2023/07/29 07:19:34;;;;;;;3.20;3.00;;;19.90;99.90;;;;;;4995100;28;20207;-57
2023/07/29 07:22:01;;;;;;;3.97;3.27;;;20.20;99.90;;;;;;4994835;28;20828;-57
2023/07/29 07:24:30;;;;;;;3.20;2.83;;;20.50;99.90;;;;;;4994647;28;20693;-57
2023/07/29 07:26:57;;;;;;;3.73;3.53;;;20.70;99.90;;;;;;4995886;28;20223;-57
2023/07/29 07:29:24;;;;;;;3.00;2.90;;;20.80;99.90;;;;;;4975545;28;20251;-55
2023/07/29 07:31:53;;;;;;;3.30;2.80;;;20.80;99.90;;;;;;4997147;28;20199;-57
2023/07/29 07:34:21;;;;;;;3.10;2.90;;;20.70;99.90;;;;;;5014177;28;20231;-57
2023/07/29 07:36:48;;;;;;;3.50;3.23;;;20.50;99.90;;;;;;5014467;28;20227;-58
2023/07/29 07:39:15;;;;;;;3.57;3.37;;;20.40;99.90;;;;;;5010558;28;20290;-56
2023/07/29 07:41:43;;;;;;;4.03;3.67;;;20.40;99.90;;;;;;4985861;28;20199;-59
2023/07/29 07:44:10;;;;;;;5.00;3.30;;;20.40;99.90;;;;;;4976574;28;20232;-58
2023/07/29 07:46:37;;;;;;;3.30;3.10;;;20.30;99.90;;;;;;4994676;28;20239;-59
2023/07/29 07:49:04;;;;;;;4.10;3.80;;;20.70;99.90;;;;;;4994411;28;20261;-60
2023/07/29 07:51:31;;;;;;;3.00;2.80;;;21.50;99.90;;;;;;4994710;28;20200;-58
2023/07/29 07:53:59;;;;;;;3.10;2.90;;;22.40;99.90;;;;;;4993436;28;20196;-57
2023/07/29 07:56:26;;;;;;;2.80;2.70;;;23.30;99.90;;;;;;4988840;28;20281;-56
2023/07/29 07:58:54;;;;;;;3.47;3.10;;;23.90;99.90;;;;;;4993198;28;20226;-58
2023/07/29 08:01:21;;;;;;;2.67;2.57;;;24.50;99.90;;;;;;4994364;28;20211;-59
2023/07/29 08:03:48;;;;;;;3.57;2.73;;;25.30;99.90;;;;;;4987692;28;20232;-58
2023/07/29 08:06:15;;;;;;;3.10;2.87;;;25.60;99.90;;;;;;4989648;28;20239;-56
2023/07/29 08:08:42;;;;;;;3.93;2.60;;;25.40;99.90;;;;;;4993215;28;20210;-58
2023/07/29 08:11:09;;;;;;;3.50;3.30;;;25.50;99.90;;;;;;4995449;28;20740;-58
2023/07/29 08:13:36;;;;;;;2.70;2.47;;;26.10;99.90;;;;;;4991091;28;20203;-57
2023/07/29 08:16:05;;;;;;;2.60;2.50;;;26.70;99.90;;;;;;4982563;28;20266;-57
2023/07/29 08:18:32;;;;;;;3.10;2.60;;;27.40;99.90;;;;;;4990855;28;20220;-56
2023/07/29 08:21:02;;;;;;;3.07;2.77;;;27.40;99.90;;;;;;4992139;28;20262;-57
2023/07/29 08:23:30;;;;;;;4.13;2.60;;;27.60;99.90;;;;;;4993703;28;20736;-57
2023/07/29 08:26:01;;;;;;;2.78;2.53;;;27.60;99.90;;;;;;5010063;28;20200;-56
2023/07/29 08:28:29;;;;;;;3.15;3.05;;;27.90;99.90;;;;;;4990027;28;20611;-55
2023/07/29 08:30:57;;;;;;;2.58;2.47;;;28.10;99.90;;;;;;4993626;28;20196;-55
2023/07/29 08:33:26;;;;;;;3.88;3.00;;;28.30;99.90;;;;;;4991701;28;20582;-57
2023/07/29 08:35:53;;;;;;;2.72;2.53;;;28.40;99.90;;;;;;4990136;28;20200;-57
2023/07/29 08:38:20;;;;;;;2.75;2.55;;;28.20;99.90;;;;;;4987478;28;20230;-57
2023/07/29 08:40:53;;;;;;;2.60;2.42;;;28.20;99.90;;;;;;4993819;28;20196;-59
2023/07/29 08:43:23;;;;;;;3.53;2.40;;;27.80;99.90;;;;;;4995433;28;20828;-58
2023/07/29 08:45:52;;;;;;;2.45;2.35;;;27.50;99.90;;;;;;4994413;28;20662;-60
2023/07/29 08:48:30;;;;;;;2.45;2.25;;;27.60;99.90;;;;;;4983945;28;20227;-61
2023/07/29 08:50:58;;;;;;;3.15;2.92;;;27.90;99.90;;;;;;4990573;28;20294;-60
2023/07/29 08:53:25;;;;;;;2.65;2.55;;;27.90;99.90;;;;;;4987403;28;20200;-61
2023/07/29 08:55:53;;;;;;;2.95;2.75;;;27.50;99.90;;;;;;4989241;28;20258;-64
2023/07/29 08:58:21;;;;;;;3.05;2.85;;;27.50;99.90;;;;;;4992993;28;20231;-63
2023/07/29 09:00:49;;;;;;;5.35;2.90;;;27.20;99.90;;;;;;4984060;28;20239;-63
2023/07/29 09:03:16;;;;;;;2.60;2.28;;;26.70;99.90;;;;;;4992918;28;20271;-64
2023/07/29 09:05:45;;;;;;;3.15;2.50;;;26.20;99.90;;;;;;4992355;28;20207;-64
2023/07/29 09:08:12;;;;;;;2.50;2.13;;;26.00;99.90;;;;;;4986799;28;20225;-62
2023/07/29 09:10:39;;;;;;;2.78;2.22;;;25.70;99.90;;;;;;4987375;28;20196;-62
2023/07/29 09:13:07;;;;;;;4.72;2.92;;;25.40;99.90;;;;;;4991800;28;20200;-63
2023/07/29 09:15:36;;;;;;;2.87;2.67;;;25.30;99.90;;;;;;4983960;28;20747;-59
2023/07/29 09:18:11;;;;;;;2.60;2.50;;;25.10;99.90;;;;;;4983571;28;20254;-61
2023/07/29 09:20:38;;;;;;;1.98;1.88;;;25.00;99.90;;;;;;4991252;28;20281;-59
2023/07/29 09:23:10;;;;;;;3.35;3.05;;;25.30;99.90;;;;;;4989414;28;20208;-53
2023/07/29 09:25:37;;;;;;;2.60;2.50;;;25.90;99.90;;;;;;4985416;28;20215;-53
2023/07/29 09:28:10;;;;;;;2.90;2.80;;;26.10;99.90;;;;;;4981620;28;20216;-52
2023/07/29 09:30:38;;;;;;;2.83;2.17;;;26.10;99.90;;;;;;4988950;28;20642;-53
2023/07/29 09:33:05;;;;;;;2.83;2.57;;;25.80;99.90;;;;;;4987928;28;20607;-52
2023/07/29 09:35:35;;;;;;;2.85;2.65;;;25.60;99.90;;;;;;4991018;28;20196;-53
2023/07/29 09:38:02;;;;;;;2.40;2.30;;;25.50;99.90;;;;;;4980464;28;20228;-53
2023/07/29 09:40:36;;;;;;;1.90;1.80;;;25.50;99.90;;;;;;4981031;28;20217;-52
2023/07/29 09:43:03;;;;;;;2.00;1.90;;;25.60;99.90;;;;;;4992073;28;20295;-52
2023/07/29 09:45:31;;;;;;;3.00;2.80;;;25.50;99.90;;;;;;4992628;28;20290;-53
2023/07/29 09:47:59;;;;;;;2.70;2.60;;;25.40;99.90;;;;;;4992303;28;20688;-53
2023/07/29 09:50:26;;;;;;;2.60;2.50;;;25.30;99.90;;;;;;4992531;28;20298;-54
2023/07/29 09:52:55;;;;;;;3.28;3.08;;;25.20;99.90;;;;;;4991632;28;20200;-53
2023/07/29 09:55:24;;;;;;;2.23;2.13;;;25.20;99.90;;;;;;4992574;28;20199;-52
2023/07/29 09:57:58;;;;;;;3.05;2.95;;;25.30;99.90;;;;;;4992491;28;20572;-52
2023/07/29 10:00:25;;;;;;;2.22;2.13;;;25.50;99.90;;;;;;4982556;28;20203;-53
2023/07/29 10:02:53;;;;;;;2.17;2.08;;;25.50;99.90;;;;;;4992207;28;20207;-52
2023/07/29 10:05:22;;;;;;;2.75;2.58;;;25.80;99.90;;;;;;4991870;28;20615;-52
2023/07/29 10:07:52;;;;;;;2.07;2.00;;;26.00;99.90;;;;;;4992059;28;20252;-52
2023/07/29 10:10:20;;;;;;;2.80;2.60;;;26.10;99.90;;;;;;4986261;28;20224;-52
2023/07/29 10:12:50;;;;;;;2.97;2.67;;;26.60;99.90;;;;;;4987277;28;20258;-52
2023/07/29 10:15:19;;;;;;;2.47;2.22;;;27.30;99.90;;;;;;4990190;28;20208;-52
2023/07/29 10:17:47;;;;;;;2.42;1.98;;;28.10;99.90;;;;;;4981758;28;20279;-52
2023/07/29 10:20:14;;;;;;;2.33;2.22;;;28.40;99.90;;;;;;4979673;28;20283;-52
2023/07/29 10:22:42;;;;;;;3.88;2.72;;;28.40;99.90;;;;;;4981555;28;20266;-52
2023/07/29 10:25:15;;;;;;;3.40;3.20;;;28.50;99.90;;;;;;4983004;28;20220;-52
2023/07/29 10:27:51;;;;;;;3.67;2.67;;;28.90;99.90;;;;;;4982765;28;20290;-52
2023/07/29 10:30:19;;;;;;;2.92;2.75;;;29.00;99.90;;;;;;4991156;28;20723;-52
2023/07/29 10:32:51;;;;;;;2.95;2.83;;;28.40;99.90;;;;;;4990432;28;20661;-53
2023/07/29 10:35:18;;;;;;;3.13;2.92;;;28.00;99.90;;;;;;4992178;28;20250;-54
2023/07/29 10:37:46;;;;;;;2.97;2.50;;;27.70;99.90;;;;;;4991313;28;20327;-52
2023/07/29 10:40:13;;;;;;;4.35;3.10;;;27.40;99.90;;;;;;4991861;28;20246;-53
2023/07/29 10:42:59;;;;;;;3.55;3.30;;;27.20;99.90;;;;;;4991084;28;20211;-53
2023/07/29 10:45:36;;;;;;;4.55;3.03;;;27.00;99.90;;;;;;4986180;28;20226;-53
2023/07/29 10:48:08;;;;;;;3.97;3.67;;;27.00;99.90;;;;;;5036646;23;20226;-54
2023/07/29 10:50:35;;;;;;;2.85;2.75;;;26.80;99.90;;;;;;5031355;28;20201;-56
2023/07/29 10:53:02;;;;;;;3.08;2.80;;;26.70;99.90;;;;;;5031064;28;20293;-54
2023/07/29 10:55:31;;;;;;;3.00;2.80;;;26.90;99.90;;;;;;5030080;28;20676;-55
2023/07/29 10:58:09;;;;;;;3.33;3.13;;;27.60;99.90;;;;;;5026103;28;20214;-55
2023/07/29 11:00:39;;;;;;;3.20;2.92;;;28.00;99.90;;;;;;5031170;28;20595;-56
2023/07/29 11:03:07;;;;;;;3.00;2.80;;;28.30;99.90;;;;;;5011614;28;20203;-56
2023/07/29 11:05:49;;;;;;;2.78;2.67;;;28.20;99.90;;;;;;5041511;28;20221;-54
2023/07/29 11:08:22;;;;;;;2.90;2.80;;;28.40;99.90;;;;;;5051375;28;20587;-54
2023/07/29 11:11:06;;;;;;;2.72;2.63;;;28.70;99.90;;;;;;5033797;28;20229;-57
2023/07/29 11:13:35;;;;;;;3.65;3.38;;;29.00;99.90;;;;;;5025601;28;20925;-55
2023/07/29 11:16:04;;;;;;;3.10;3.00;;;29.00;99.90;;;;;;5031141;28;20268;-56
2023/07/29 11:18:33;;;;;;;2.92;2.72;;;29.00;99.90;;;;;;5031058;28;20284;-61
2023/07/29 11:21:01;;;;;;;3.58;3.38;;;28.70;99.90;;;;;;5031071;28;20220;-70
2023/07/29 11:23:30;;;;;;;3.67;3.47;;;28.10;99.90;;;;;;5029540;28;20614;-71
2023/07/29 11:25:58;;;;;;;3.75;3.55;;;28.10;99.90;;;;;;5030622;28;20226;-70
2023/07/29 11:28:25;;;;;;;4.93;4.45;;;28.20;99.90;;;;;;5030969;28;20284;-74
2023/07/29 11:30:53;;;;;;;3.80;3.60;;;28.30;99.90;;;;;;5031126;28;20253;-67
2023/07/29 11:33:24;;;;;;;4.40;4.07;;;28.50;99.90;;;;;;5030687;28;20206;-63
2023/07/29 11:35:51;;;;;;;3.60;3.45;;;28.60;99.90;;;;;;5029776;28;20294;-64
2023/07/29 11:38:20;;;;;;;3.85;3.60;;;28.40;99.90;;;;;;5020116;28;20240;-63
2023/07/29 11:40:56;;;;;;;3.97;3.78;;;28.40;99.90;;;;;;5027555;28;20883;-66
2023/07/29 11:43:23;;;;;;;4.05;3.20;;;28.50;99.90;;;;;;5030610;28;20272;-62
2023/07/29 11:45:50;;;;;;;3.90;3.70;;;28.40;99.90;;;;;;5029489;28;20728;-63
2023/07/29 11:48:17;;;;;;;3.65;3.47;;;27.90;99.90;;;;;;5025849;28;20234;-68
2023/07/29 11:50:47;;;;;;;3.47;3.22;;;27.60;99.90;;;;;;5013973;28;20265;-66
2023/07/29 11:53:14;;;;;;;4.15;3.95;;;27.80;99.90;;;;;;5031301;28;20207;-66
2023/07/29 11:55:41;;;;;;;4.28;4.05;;;27.80;99.90;;;;;;5034153;28;20542;-66
2023/07/29 11:58:08;;;;;;;4.35;4.03;;;27.90;99.90;;;;;;5034043;28;20222;-67
2023/07/29 12:00:35;;;;;;;3.78;3.58;;;27.90;99.90;;;;;;5034411;28;20258;-66
2023/07/29 12:03:02;;;;;;;3.65;3.45;;;27.80;99.90;;;;;;5033981;28;20210;-62
2023/07/29 12:05:30;;;;;;;3.83;3.63;;;27.80;99.90;;;;;;5015717;28;20241;-65
2023/07/29 12:07:59;;;;;;;3.72;3.42;;;27.50;99.90;;;;;;5025245;28;20226;-64
2023/07/29 12:10:26;;;;;;;3.97;3.67;;;27.30;99.90;;;;;;5025093;28;20225;-64
2023/07/29 12:12:53;;;;;;;4.32;4.03;;;27.20;99.90;;;;;;5033699;28;20672;-62
2023/07/29 12:15:27;;;;;;;4.38;4.07;;;26.90;99.90;;;;;;5034157;28;20199;-63
2023/07/29 12:17:56;;;;;;;4.28;3.97;;;26.30;99.90;;;;;;5033807;28;20646;-69
2023/07/29 12:20:24;;;;;;;3.47;3.28;;;26.20;99.90;;;;;;5033020;28;20854;-66
2023/07/29 12:23:01;;;;;;;4.45;4.15;;;26.00;99.90;;;;;;5033235;28;20674;-62
2023/07/29 12:25:28;;;;;;;4.03;3.72;;;25.60;99.90;;;;;;5033921;28;20233;-63
2023/07/29 12:27:55;;;;;;;4.53;4.05;;;25.50;99.90;;;;;;5033793;28;20296;-63
2023/07/29 12:30:24;;;;;;;4.43;4.18;;;25.20;99.90;;;;;;5033756;28;20206;-65
2023/07/29 12:32:53;;;;;;;3.70;3.50;;;24.90;99.90;;;;;;5033445;28;20668;-65
2023/07/29 12:35:20;;;;;;;4.67;4.37;;;24.90;99.90;;;;;;5032876;28;20660;-66
2023/07/29 12:37:47;;;;;;;3.87;3.77;;;24.90;99.90;;;;;;5024858;28;20289;-65
2023/07/29 12:40:28;;;;;;;4.40;4.20;;;24.80;99.90;;;;;;5033220;28;20664;-66
2023/07/29 12:42:55;;;;;;;4.47;4.17;;;24.30;99.90;;;;;;5032844;28;20326;-66
2023/07/29 12:45:23;;;;;;;5.93;5.43;;;24.00;99.90;;;;;;5033155;28;20219;-65
2023/07/29 12:47:50;;;;;;;5.00;4.70;;;23.90;99.90;;;;;;5032876;28;20593;-63
2023/07/29 12:50:17;;;;;;;5.53;5.23;;;23.90;99.90;;;;;;5032693;28;20213;-63
2023/07/29 12:52:44;;;;;;;5.60;5.10;;;23.90;99.90;;;;;;5032888;28;20226;-64